Time;durP1;ratioP1;P1;durP2;ratioP2;P2;SDS_P1;SDS_P2;PMS_P1;PMS_P2;Temp;Humidity;BMP_temperature;BMP_pressure;BME280_temperature;BME280_humidity;BME280_pressure;Samples;Min_cycle;Max_cycle;Signal;HPM_P1;HPM_P2
2022/01/29 00:02:19;;;;;;;18.08;10.93;;;102.80;2227.20;;;;;;4997608;28;20041;-83
2022/01/29 00:04:46;;;;;;;20.48;12.40;;;102.90;2227.20;;;;;;4998329;28;20034;-86
2022/01/29 00:07:13;;;;;;;16.85;10.30;;;102.80;2227.20;;;;;;4998204;28;20025;-83
2022/01/29 00:09:39;;;;;;;21.42;13.07;;;102.80;2227.20;;;;;;4997892;28;20096;-83
2022/01/29 00:12:05;;;;;;;20.55;12.13;;;102.80;2227.20;;;;;;4998232;28;20461;-85
2022/01/29 00:14:31;;;;;;;23.52;14.77;;;102.80;2227.20;;;;;;4997676;28;20144;-84
2022/01/29 00:16:56;;;;;;;20.05;12.13;;;102.80;2227.20;;;;;;4997626;28;20566;-85
2022/01/29 00:19:22;;;;;;;31.10;17.10;;;102.80;2227.20;;;;;;4997831;28;20034;-83
2022/01/29 00:21:48;;;;;;;26.10;15.60;;;102.80;2227.20;;;;;;4997614;28;20048;-83
2022/01/29 00:24:14;;;;;;;22.35;14.05;;;102.80;2227.20;;;;;;4997941;28;20120;-81
2022/01/29 00:26:40;;;;;;;22.45;12.48;;;102.80;2227.20;;;;;;4997278;28;20385;-84
2022/01/29 00:29:16;;;;;;;23.80;13.75;;;102.80;2227.20;;;;;;4997633;28;20034;-85
2022/01/29 00:31:43;;;;;;;29.60;16.23;;;102.70;2227.20;;;;;;4997600;28;20036;-83
2022/01/29 00:34:09;;;;;;;23.30;14.63;;;102.70;2227.20;;;;;;5015538;28;20026;-81
2022/01/29 00:36:35;;;;;;;20.80;12.82;;;102.70;2227.20;;;;;;4998134;28;20029;-84
2022/01/29 00:39:01;;;;;;;30.38;16.48;;;102.70;2227.20;;;;;;4998083;28;20515;-83
2022/01/29 00:41:29;;;;;;;30.83;16.58;;;102.70;2227.20;;;;;;4997805;28;20482;-83
2022/01/29 00:43:55;;;;;;;29.20;16.98;;;102.60;2227.20;;;;;;4998055;28;20029;-83
2022/01/29 00:46:21;;;;;;;23.15;13.80;;;102.70;2227.20;;;;;;4997920;28;20057;-83
2022/01/29 00:48:46;;;;;;;14.95;9.55;;;102.70;2227.20;;;;;;5014862;28;20108;-84
2022/01/29 00:51:12;;;;;;;19.35;12.20;;;102.70;2227.20;;;;;;4997829;28;20053;-84
2022/01/29 00:53:38;;;;;;;16.65;11.18;;;102.70;2227.20;;;;;;4997884;28;20026;-83
2022/01/29 00:56:06;;;;;;;21.23;11.60;;;102.70;2227.20;;;;;;4998129;28;20025;-84
2022/01/29 00:58:33;;;;;;;16.30;9.98;;;102.60;2227.20;;;;;;4997847;28;20033;-85
2022/01/29 01:01:00;;;;;;;10.77;7.18;;;102.60;2227.20;;;;;;4997905;28;20033;-86
2022/01/29 01:03:25;;;;;;;15.32;9.85;;;102.60;2227.20;;;;;;4997477;28;20466;-83
2022/01/29 01:05:51;;;;;;;17.52;10.52;;;102.50;2227.20;;;;;;4997663;28;20030;-85
2022/01/29 01:08:17;;;;;;;12.40;7.25;;;102.50;2227.20;;;;;;4997794;28;20108;-84
2022/01/29 01:10:43;;;;;;;10.45;6.30;;;102.50;2227.20;;;;;;5015213;28;20053;-84
2022/01/29 01:13:09;;;;;;;11.88;7.28;;;102.50;2227.20;;;;;;4997856;28;20030;-85
2022/01/29 01:15:35;;;;;;;10.70;7.07;;;102.50;2227.20;;;;;;4997484;28;20026;-83
2022/01/29 01:18:01;;;;;;;15.25;10.60;;;102.50;2227.20;;;;;;4997092;28;20057;-85
2022/01/29 01:20:27;;;;;;;16.83;8.65;;;102.40;2227.20;;;;;;4997701;28;20025;-84
2022/01/29 01:22:53;;;;;;;16.98;9.20;;;102.40;2227.20;;;;;;5014740;28;20065;-85
2022/01/29 01:25:19;;;;;;;16.27;11.32;;;102.40;2227.20;;;;;;4997685;28;20068;-85
2022/01/29 01:27:45;;;;;;;22.50;13.05;;;102.40;2227.20;;;;;;4997377;28;20030;-83
2022/01/29 01:30:11;;;;;;;14.48;9.43;;;102.50;2227.20;;;;;;4997233;28;20030;-83
2022/01/29 01:32:38;;;;;;;12.18;8.20;;;102.50;2227.20;;;;;;4997238;28;20128;-85
2022/01/29 01:35:19;;;;;;;13.30;8.68;;;102.40;2227.20;;;;;;4997556;28;20498;-84
2022/01/29 01:37:51;;;;;;;17.50;11.13;;;102.40;2227.20;;;;;;4997082;28;20475;-84
2022/01/29 01:40:18;;;;;;;20.85;12.18;;;102.40;2227.20;;;;;;4997423;28;20033;-84
2022/01/29 01:42:44;;;;;;;15.27;10.15;;;102.40;2227.20;;;;;;4997218;28;20040;-84
2022/01/29 01:45:10;;;;;;;16.42;9.18;;;102.40;2227.20;;;;;;4997069;28;20026;-84
2022/01/29 01:47:36;;;;;;;10.57;7.43;;;102.40;2227.20;;;;;;4997285;28;20382;-83
2022/01/29 01:50:03;;;;;;;11.18;6.63;;;102.40;2227.20;;;;;;4997219;28;20033;-86
2022/01/29 01:52:28;;;;;;;12.98;6.80;;;102.40;2227.20;;;;;;4997060;28;20085;-84
2022/01/29 01:54:54;;;;;;;13.43;6.93;;;77.70;2227.20;;;;;;4997174;28;20022;-84
2022/01/29 01:57:20;;;;;;;10.68;6.50;;;102.40;2227.20;;;;;;4997000;28;20080;-85
2022/01/29 01:59:46;;;;;;;11.45;6.22;;;77.70;2227.20;;;;;;4996737;28;20112;-83
2022/01/29 02:02:12;;;;;;;8.98;5.60;;;102.40;2227.20;;;;;;4996419;28;20466;-86
2022/01/29 02:04:38;;;;;;;12.23;6.30;;;102.40;2227.20;;;;;;4996590;28;20030;-83
2022/01/29 02:07:05;;;;;;;10.90;7.25;;;102.40;2227.20;;;;;;5014595;28;20026;-84
2022/01/29 02:09:32;;;;;;;13.13;7.72;;;102.50;2227.20;;;;;;4996861;28;20049;-84
2022/01/29 02:12:01;;;;;;;14.45;7.57;;;102.40;2227.20;;;;;;4996723;28;20037;-83
2022/01/29 02:14:31;;;;;;;12.50;8.40;;;102.40;2227.20;;;;;;4996779;28;20527;-84
2022/01/29 02:17:01;;;;;;;13.38;9.88;;;102.40;2227.20;;;;;;4993243;28;20626;-83
2022/01/29 02:19:27;;;;;;;14.43;9.05;;;102.40;2227.20;;;;;;4993513;28;20084;-86
2022/01/29 02:21:55;;;;;;;17.45;9.52;;;102.40;2227.20;;;;;;4993476;28;20030;-86
2022/01/29 02:24:21;;;;;;;20.58;11.15;;;102.50;2227.20;;;;;;4994738;28;20118;-83
2022/01/29 02:26:46;;;;;;;24.10;12.80;;;102.50;2227.20;;;;;;4993461;28;20038;-84
2022/01/29 02:29:14;;;;;;;21.42;12.38;;;102.50;2227.20;;;;;;4993721;28;20406;-86
2022/01/29 02:31:48;;;;;;;31.65;14.55;;;102.50;2227.20;;;;;;4993544;28;20037;-86
2022/01/29 02:34:15;;;;;;;14.85;9.80;;;102.50;2227.20;;;;;;4994871;28;20022;-86
2022/01/29 02:36:42;;;;;;;17.25;9.95;;;102.50;2227.20;;;;;;4993322;28;20022;-84
2022/01/29 02:39:10;;;;;;;17.55;10.75;;;102.50;2227.20;;;;;;4993407;28;20022;-84
2022/01/29 02:41:39;;;;;;;14.02;8.68;;;102.50;2227.20;;;;;;4993520;28;20069;-85
2022/01/29 02:44:06;;;;;;;13.77;8.85;;;102.40;2227.20;;;;;;4993584;28;20034;-86
2022/01/29 02:47:33;;;;;;;15.45;8.30;;;102.40;2227.20;;;;;;4993247;28;20022;-85
2022/01/29 02:49:27;;;;;;;13.35;7.35;;;77.70;2227.20;;;;;;4985472;28;20042;-85
2022/01/29 02:51:55;;;;;;;23.15;13.60;;;77.70;2227.20;;;;;;4993698;28;20081;-84
2022/01/29 02:54:23;;;;;;;17.95;11.00;;;77.70;2227.20;;;;;;4993279;28;20533;-86
2022/01/29 02:56:50;;;;;;;18.02;11.20;;;77.70;2227.20;;;;;;4993360;28;20387;-84
2022/01/29 02:59:15;;;;;;;19.20;10.02;;;77.60;2227.20;;;;;;4993541;28;20079;-87
2022/01/29 03:01:42;;;;;;;15.55;9.98;;;77.60;2227.20;;;;;;4993190;28;20490;-85
2022/01/29 03:04:08;;;;;;;14.65;9.52;;;77.60;2227.20;;;;;;4993331;28;20030;-84
2022/01/29 03:06:34;;;;;;;12.70;7.18;;;102.40;2227.20;;;;;;4998549;28;20032;-83
2022/01/29 03:09:01;;;;;;;14.77;9.52;;;77.40;2227.20;;;;;;5002450;28;20117;-85
2022/01/29 03:11:27;;;;;;;33.00;16.67;;;77.40;2227.20;;;;;;4993396;28;20030;-84
2022/01/29 03:13:53;;;;;;;12.05;8.05;;;77.30;2227.20;;;;;;4996811;28;20034;-86
2022/01/29 03:16:19;;;;;;;27.45;15.50;;;77.30;2227.20;;;;;;4996303;28;20130;-83
2022/01/29 03:18:45;;;;;;;33.42;15.93;;;77.20;2227.20;;;;;;4996741;28;20030;-83
2022/01/29 03:21:12;;;;;;;12.02;7.72;;;77.20;2227.20;;;;;;4996599;28;20030;-84
2022/01/29 03:23:38;;;;;;;35.47;18.55;;;77.30;2227.20;;;;;;4996156;28;20038;-85
2022/01/29 03:26:04;;;;;;;14.60;8.82;;;77.30;2227.20;;;;;;4996353;28;20033;-86
2022/01/29 03:28:30;;;;;;;23.17;14.20;;;77.20;2227.20;;;;;;4996286;28;20034;-80
2022/01/29 03:30:57;;;;;;;18.25;11.18;;;77.20;2227.20;;;;;;4996495;28;20035;-83
2022/01/29 03:33:23;;;;;;;24.85;14.35;;;77.40;2227.20;;;;;;4996432;28;20129;-84
2022/01/29 03:35:50;;;;;;;17.48;10.73;;;77.10;2227.20;;;;;;4996250;28;20117;-84
2022/01/29 03:38:16;;;;;;;16.85;9.40;;;102.40;2227.20;;;;;;4996355;28;20031;-85
2022/01/29 03:40:44;;;;;;;15.30;8.75;;;77.20;2227.20;;;;;;4996398;28;20430;-84
2022/01/29 03:43:13;;;;;;;16.65;9.82;;;77.20;2227.20;;;;;;4996214;28;20034;-84
2022/01/29 03:45:39;;;;;;;14.40;7.78;;;77.20;2227.20;;;;;;4996214;28;20031;-84
2022/01/29 03:48:08;;;;;;;10.73;6.35;;;77.20;2227.20;;;;;;4996138;28;20027;-84
2022/01/29 03:50:35;;;;;;;24.70;12.95;;;77.70;2227.20;;;;;;4995858;28;20026;-85
2022/01/29 03:53:00;;;;;;;15.23;7.82;;;77.20;2227.20;;;;;;4995926;28;20045;-86
2022/01/29 03:55:27;;;;;;;8.10;5.45;;;77.20;2227.20;;;;;;4996011;28;20022;-83
2022/01/29 03:57:52;;;;;;;9.00;6.10;;;77.10;2227.20;;;;;;4995660;28;20382;-84
2022/01/29 04:00:18;;;;;;;11.65;5.88;;;77.10;2227.20;;;;;;4996060;28;20032;-86
2022/01/29 04:02:44;;;;;;;10.43;6.30;;;77.10;2227.20;;;;;;4995689;28;20034;-84
2022/01/29 04:05:11;;;;;;;10.13;6.30;;;77.10;2227.20;;;;;;4995804;28;20034;-86
2022/01/29 04:07:37;;;;;;;9.48;6.32;;;77.10;2227.20;;;;;;4997180;28;20081;-85
2022/01/29 04:10:03;;;;;;;9.45;5.75;;;77.00;2048.00;;;;;;4995940;28;20028;-84
2022/01/29 04:12:35;;;;;;;9.10;5.60;;;77.00;2227.20;;;;;;4995155;28;20062;-86
2022/01/29 04:15:01;;;;;;;11.68;7.78;;;77.10;1971.20;;;;;;4995756;28;20061;-84
2022/01/29 04:17:27;;;;;;;10.05;6.28;;;77.10;2227.20;;;;;;4995309;28;20445;-84
2022/01/29 04:19:53;;;;;;;12.07;6.80;;;77.00;1971.20;;;;;;4995533;28;20031;-86
2022/01/29 04:22:18;;;;;;;9.25;5.97;;;77.00;2227.20;;;;;;4995579;28;20149;-86
2022/01/29 04:24:44;;;;;;;7.88;4.97;;;77.00;2227.20;;;;;;4994863;28;20026;-84
2022/01/29 04:27:17;;;;;;;12.18;7.53;;;77.00;2048.00;;;;;;4995544;28;20117;-84
2022/01/29 04:29:56;;;;;;;10.52;6.88;;;77.00;2227.20;;;;;;4995540;28;20089;-85
2022/01/29 04:32:32;;;;;;;11.90;6.55;;;76.90;2227.20;;;;;;4995248;28;20391;-86
2022/01/29 04:34:58;;;;;;;12.95;8.00;;;76.90;2227.20;;;;;;4995501;28;20027;-84
2022/01/29 04:37:24;;;;;;;12.55;7.70;;;76.90;2227.20;;;;;;4995415;28;20029;-85
2022/01/29 04:39:50;;;;;;;11.85;7.53;;;77.00;2124.80;;;;;;4994999;28;20026;-84
2022/01/29 04:42:16;;;;;;;14.20;8.43;;;77.00;1945.60;;;;;;4995201;28;20034;-87
2022/01/29 04:44:41;;;;;;;18.35;8.38;;;77.00;1945.60;;;;;;4994946;28;20035;-86
2022/01/29 04:47:07;;;;;;;11.82;6.78;;;77.00;2227.20;;;;;;4995019;28;20049;-87
2022/01/29 04:49:33;;;;;;;10.68;6.85;;;76.90;1843.20;;;;;;4995313;28;20026;-86
2022/01/29 04:51:59;;;;;;;10.80;6.78;;;76.90;2099.20;;;;;;4995014;28;20031;-85
2022/01/29 04:54:24;;;;;;;8.70;6.35;;;77.00;1868.80;;;;;;4994802;28;20123;-84
2022/01/29 04:56:50;;;;;;;13.50;7.00;;;77.00;2227.20;;;;;;4994976;28;20030;-87
2022/01/29 04:59:16;;;;;;;16.00;8.20;;;77.00;2227.20;;;;;;4994734;28;20026;-85
2022/01/29 05:01:42;;;;;;;11.32;7.20;;;76.90;2227.20;;;;;;4994586;28;20113;-86
2022/01/29 05:04:07;;;;;;;14.73;9.13;;;77.00;2227.20;;;;;;4994903;28;20035;-84
2022/01/29 05:06:33;;;;;;;100.25;52.13;;;77.00;2227.20;;;;;;4994707;28;20026;-86
2022/01/29 05:08:59;;;;;;;29.38;19.92;;;77.00;1920.00;;;;;;4994475;28;20026;-87
2022/01/29 05:11:24;;;;;;;15.90;11.88;;;77.00;2227.20;;;;;;4994777;28;20030;-87
2022/01/29 05:13:50;;;;;;;19.33;12.10;;;77.00;2227.20;;;;;;4994732;28;20030;-86
2022/01/29 05:27:09;;;;;;;10.82;7.80;;;77.00;2227.20;;;;;;4995416;28;20431;-85
2022/01/29 05:29:37;;;;;;;36.67;18.23;;;77.00;2227.20;;;;;;4994080;28;20030;-84
2022/01/29 05:32:07;;;;;;;14.70;10.35;;;77.00;2227.20;;;;;;4994249;28;20077;-86
2022/01/29 05:34:34;;;;;;;10.65;7.60;;;77.00;2227.20;;;;;;4994159;28;20037;-85
2022/01/29 05:37:02;;;;;;;9.50;7.18;;;77.00;2227.20;;;;;;4993413;28;20478;-83
2022/01/29 05:39:27;;;;;;;11.02;6.60;;;77.00;2227.20;;;;;;4993717;28;20062;-85
2022/01/29 05:41:54;;;;;;;16.50;8.85;;;77.00;2227.20;;;;;;4994914;28;20065;-84
2022/01/29 05:44:20;;;;;;;16.20;11.48;;;77.00;2227.20;;;;;;4994043;28;20034;-84
2022/01/29 05:46:46;;;;;;;16.35;10.48;;;77.00;2227.20;;;;;;4994059;28;20026;-83
2022/01/29 05:49:12;;;;;;;13.93;10.93;;;77.10;2227.20;;;;;;4993713;28;20030;-85
2022/01/29 05:51:38;;;;;;;14.75;10.40;;;77.00;2227.20;;;;;;4994066;28;20067;-85
2022/01/29 05:54:04;;;;;;;24.75;15.18;;;77.20;2227.20;;;;;;4994122;28;20027;-86
2022/01/29 05:56:30;;;;;;;18.23;11.00;;;77.10;2227.20;;;;;;4993869;28;20462;-85
2022/01/29 05:58:59;;;;;;;16.67;10.70;;;77.10;2227.20;;;;;;4995092;28;20024;-84
2022/01/29 06:01:24;;;;;;;20.42;12.80;;;77.20;2227.20;;;;;;4994984;28;20029;-84
2022/01/29 06:03:50;;;;;;;27.73;15.60;;;77.20;2227.20;;;;;;4993831;28;20030;-84
2022/01/29 06:06:16;;;;;;;26.00;15.25;;;77.20;2227.20;;;;;;4993845;28;20062;-85
2022/01/29 06:08:42;;;;;;;23.10;14.60;;;77.20;2227.20;;;;;;4993791;28;20022;-85
2022/01/29 06:11:08;;;;;;;22.13;14.18;;;77.10;2227.20;;;;;;4993359;28;20030;-86
2022/01/29 06:13:34;;;;;;;23.02;14.35;;;77.20;2227.20;;;;;;4993725;28;20041;-84
2022/01/29 06:16:01;;;;;;;27.33;13.50;;;77.20;2227.20;;;;;;4995997;28;20027;-84
2022/01/29 06:18:28;;;;;;;22.00;12.55;;;77.20;2227.20;;;;;;4996859;28;20485;-85
2022/01/29 06:21:03;;;;;;;23.60;12.48;;;77.20;2227.20;;;;;;4996835;28;20030;-85
2022/01/29 06:23:32;;;;;;;20.65;12.45;;;77.20;2227.20;;;;;;4997051;28;20045;-85
2022/01/29 06:25:59;;;;;;;25.48;15.35;;;77.20;2227.20;;;;;;4996951;28;20500;-84
2022/01/29 06:28:25;;;;;;;23.10;14.80;;;77.20;2227.20;;;;;;4996911;28;20036;-84
2022/01/29 06:30:51;;;;;;;35.75;24.73;;;77.20;2227.20;;;;;;4996593;28;20026;-85
2022/01/29 06:33:17;;;;;;;35.92;23.08;;;77.30;2227.20;;;;;;4996884;28;20030;-84
2022/01/29 06:35:44;;;;;;;49.13;25.80;;;77.30;2227.20;;;;;;5014381;28;20409;-83
2022/01/29 06:38:11;;;;;;;38.67;23.10;;;77.20;2227.20;;;;;;5003876;28;20040;-82
2022/01/29 06:40:38;;;;;;;41.42;24.95;;;77.30;2227.20;;;;;;5009107;28;20030;-85
2022/01/29 06:43:05;;;;;;;41.85;24.73;;;77.30;2227.20;;;;;;4996741;28;20026;-84
2022/01/29 06:45:32;;;;;;;44.38;25.00;;;77.30;2227.20;;;;;;5013988;28;20041;-85
2022/01/29 06:47:58;;;;;;;42.22;25.38;;;77.50;2227.20;;;;;;4998902;28;20026;-84
2022/01/29 06:50:25;;;;;;;70.20;40.47;;;77.30;2227.20;;;;;;5000566;28;20033;-85
2022/01/29 06:52:50;;;;;;;36.15;22.33;;;77.20;2227.20;;;;;;4999995;28;20482;-84
2022/01/29 06:55:17;;;;;;;43.97;22.45;;;77.40;2227.20;;;;;;5000428;28;20022;-84
2022/01/29 06:57:42;;;;;;;25.17;17.40;;;77.30;2227.20;;;;;;5000536;28;20034;-87
2022/01/29 07:00:09;;;;;;;32.05;19.52;;;77.40;2227.20;;;;;;5000161;28;20025;-86
2022/01/29 07:02:36;;;;;;;32.70;17.58;;;77.40;2227.20;;;;;;5000268;28;20030;-85
2022/01/29 07:05:06;;;;;;;69.43;22.92;;;77.40;2227.20;;;;;;5000210;28;20053;-85
2022/01/29 07:07:31;;;;;;;60.20;32.40;;;77.40;2227.20;;;;;;4999908;28;20116;-83
2022/01/29 07:09:57;;;;;;;72.00;29.58;;;77.50;2227.20;;;;;;5000186;28;20072;-81
2022/01/29 07:12:24;;;;;;;81.70;31.55;;;77.50;2227.20;;;;;;5000069;28;20459;-85
2022/01/29 07:14:50;;;;;;;80.32;36.28;;;77.50;2227.20;;;;;;4999814;28;20501;-85
2022/01/29 07:17:18;;;;;;;80.63;36.90;;;77.40;2227.20;;;;;;4999749;28;20045;-83
2022/01/29 07:19:45;;;;;;;68.70;36.70;;;77.40;2227.20;;;;;;5000083;28;20025;-85
2022/01/29 07:22:12;;;;;;;53.72;28.25;;;77.40;2227.20;;;;;;4999829;28;20037;-85
2022/01/29 07:24:38;;;;;;;72.03;38.38;;;77.30;2227.20;;;;;;4999895;28;20497;-86
2022/01/29 07:27:05;;;;;;;60.55;34.65;;;77.40;2227.20;;;;;;4999760;28;20037;-87
2022/01/29 07:29:31;;;;;;;36.25;21.70;;;77.30;2227.20;;;;;;4999903;28;20034;-86
2022/01/29 07:31:58;;;;;;;26.75;18.90;;;77.20;2227.20;;;;;;4999644;28;20073;-83
2022/01/29 07:34:25;;;;;;;22.80;14.32;;;77.30;2227.20;;;;;;4999507;28;20026;-84
2022/01/29 07:36:52;;;;;;;21.77;15.00;;;77.30;2227.20;;;;;;4999738;28;20394;-84
2022/01/29 07:39:18;;;;;;;19.88;11.73;;;77.30;2227.20;;;;;;4999699;28;20044;-84
2022/01/29 07:41:45;;;;;;;28.65;17.02;;;77.30;2227.20;;;;;;4999169;28;20028;-84
2022/01/29 07:44:11;;;;;;;41.72;27.50;;;77.30;2227.20;;;;;;4999710;28;20126;-86
2022/01/29 07:46:37;;;;;;;54.03;31.65;;;77.30;2227.20;;;;;;5017399;28;20520;-85
2022/01/29 07:49:03;;;;;;;47.40;27.98;;;77.30;2227.20;;;;;;5016868;28;20030;-85
2022/01/29 07:51:29;;;;;;;56.72;35.67;;;77.40;2227.20;;;;;;4999484;28;20026;-86
2022/01/29 07:53:55;;;;;;;55.30;34.28;;;77.40;2227.20;;;;;;4999400;28;20546;-86
2022/01/29 07:56:21;;;;;;;63.75;36.10;;;77.40;2227.20;;;;;;4999310;28;20109;-85
2022/01/29 07:58:51;;;;;;;68.82;41.55;;;77.40;2227.20;;;;;;4998248;28;20430;-85
2022/01/29 08:01:17;;;;;;;67.72;41.97;;;77.40;2227.20;;;;;;4999289;28;20038;-85
2022/01/29 08:03:48;;;;;;;72.25;45.95;;;77.40;2227.20;;;;;;4999021;28;20026;-85
2022/01/29 08:06:15;;;;;;;221.93;117.57;;;77.50;2227.20;;;;;;4999304;28;20120;-85
2022/01/29 08:08:40;;;;;;;264.60;142.35;;;77.40;2227.20;;;;;;4998846;28;20510;-85
2022/01/29 08:11:08;;;;;;;104.50;66.32;;;77.50;2227.20;;;;;;4999155;28;20026;-85
2022/01/29 08:13:34;;;;;;;41.25;28.35;;;77.40;2227.20;;;;;;4999292;28;20026;-87
2022/01/29 08:16:00;;;;;;;38.15;24.98;;;77.40;2227.20;;;;;;4998682;28;20507;-87
2022/01/29 08:18:26;;;;;;;49.30;30.67;;;77.50;2227.20;;;;;;4998852;28;20092;-86
2022/01/29 08:20:52;;;;;;;30.13;22.38;;;77.50;2227.20;;;;;;4998749;28;20030;-85
2022/01/29 08:23:17;;;;;;;40.75;26.88;;;77.40;2227.20;;;;;;4998405;28;20065;-86
2022/01/29 08:25:43;;;;;;;36.63;25.30;;;77.50;2227.20;;;;;;4998832;28;20029;-85
2022/01/29 08:28:09;;;;;;;35.50;20.85;;;77.50;2227.20;;;;;;4998791;28;20117;-85
2022/01/29 08:30:35;;;;;;;22.27;15.90;;;77.50;2227.20;;;;;;4998287;28;20120;-84
2022/01/29 08:33:02;;;;;;;26.73;17.75;;;77.40;2227.20;;;;;;5016038;28;20079;-85
2022/01/29 08:35:28;;;;;;;26.27;18.02;;;77.20;2227.20;;;;;;4998726;28;20026;-85
2022/01/29 08:37:54;;;;;;;28.95;21.55;;;77.50;2227.20;;;;;;4998397;28;20036;-85
2022/01/29 08:40:20;;;;;;;29.00;19.92;;;77.50;2227.20;;;;;;4998578;28;20109;-86
2022/01/29 08:42:46;;;;;;;55.35;34.00;;;77.50;2227.20;;;;;;4998524;28;20533;-85
2022/01/29 08:45:15;;;;;;;36.25;23.98;;;77.50;2227.20;;;;;;4998008;28;20034;-85
2022/01/29 08:47:42;;;;;;;31.08;20.13;;;77.60;2227.20;;;;;;4998508;28;20018;-85
2022/01/29 08:50:09;;;;;;;42.10;28.33;;;77.60;2227.20;;;;;;4998266;28;20033;-85
2022/01/29 08:52:37;;;;;;;29.33;22.13;;;77.70;2227.20;;;;;;5015804;28;20030;-83
2022/01/29 08:55:04;;;;;;;22.98;17.10;;;77.70;2227.20;;;;;;4998296;28;20355;-86
2022/01/29 08:57:30;;;;;;;24.42;14.68;;;77.60;2227.20;;;;;;4998000;28;20022;-86
2022/01/29 08:59:56;;;;;;;28.95;16.83;;;77.70;2227.20;;;;;;4998225;28;20037;-86
2022/01/29 09:02:22;;;;;;;40.38;25.55;;;77.60;2227.20;;;;;;4998256;28;20037;-87
2022/01/29 09:04:49;;;;;;;28.65;18.65;;;77.60;2227.20;;;;;;5015654;28;20489;-85
2022/01/29 09:07:15;;;;;;;34.50;23.52;;;77.60;2227.20;;;;;;4998166;28;20108;-86
2022/01/29 09:09:44;;;;;;;31.63;20.90;;;77.60;2227.20;;;;;;4997713;28;20080;-86
2022/01/29 09:12:11;;;;;;;25.52;16.15;;;77.70;2227.20;;;;;;4997322;28;20036;-82
2022/01/29 09:14:37;;;;;;;25.50;17.88;;;77.70;2227.20;;;;;;4997653;28;20026;-84
2022/01/29 09:17:03;;;;;;;22.23;15.50;;;77.70;2227.20;;;;;;4997812;28;20049;-86
2022/01/29 09:19:29;;;;;;;40.65;22.95;;;77.60;2227.20;;;;;;4997909;28;20025;-86
2022/01/29 09:21:55;;;;;;;27.67;17.35;;;77.60;2227.20;;;;;;4997645;28;20458;-86
2022/01/29 09:24:20;;;;;;;34.63;18.45;;;77.60;2227.20;;;;;;4997885;28;20034;-85
2022/01/29 09:26:46;;;;;;;35.85;23.33;;;77.60;2227.20;;;;;;5015214;28;20037;-84
2022/01/29 09:29:12;;;;;;;35.72;19.40;;;77.60;2227.20;;;;;;4997627;28;20064;-83
2022/01/29 09:31:38;;;;;;;21.70;12.65;;;77.60;2227.20;;;;;;4997543;28;20033;-84
2022/01/29 09:34:03;;;;;;;23.30;15.00;;;77.50;2227.20;;;;;;4997478;28;20026;-85
2022/01/29 09:36:29;;;;;;;36.65;21.85;;;77.50;2227.20;;;;;;4997402;28;20036;-87
2022/01/29 09:38:55;;;;;;;41.83;25.65;;;77.50;2227.20;;;;;;4997694;28;20021;-84
2022/01/29 09:41:24;;;;;;;41.60;29.20;;;77.50;2227.20;;;;;;4997314;28;20022;-84
2022/01/29 09:43:52;;;;;;;27.15;16.90;;;77.50;2227.20;;;;;;5009388;28;20461;-83
2022/01/29 09:46:18;;;;;;;33.70;20.90;;;77.50;2227.20;;;;;;5023649;28;20033;-84
2022/01/29 09:48:44;;;;;;;63.15;37.60;;;77.50;2227.20;;;;;;4997677;28;20022;-85
2022/01/29 09:51:14;;;;;;;84.05;50.58;;;77.50;2227.20;;;;;;4997039;28;20030;-86
2022/01/29 09:53:43;;;;;;;61.45;34.58;;;77.60;2227.20;;;;;;4997081;28;20061;-86
2022/01/29 09:56:10;;;;;;;29.83;17.80;;;77.50;2227.20;;;;;;4997473;28;20029;-86
2022/01/29 09:58:37;;;;;;;32.53;19.27;;;77.50;2227.20;;;;;;4997341;28;20036;-85
2022/01/29 10:01:03;;;;;;;30.08;19.50;;;77.50;2227.20;;;;;;4997317;28;20381;-87
2022/01/29 10:03:29;;;;;;;26.52;17.80;;;77.70;2227.20;;;;;;4997270;28;20117;-86
2022/01/29 10:05:57;;;;;;;45.38;24.48;;;77.50;2227.20;;;;;;4997144;28;20045;-84
2022/01/29 10:08:24;;;;;;;30.92;23.25;;;77.50;2227.20;;;;;;4996887;28;20030;-85
2022/01/29 10:10:57;;;;;;;37.25;25.23;;;77.50;2227.20;;;;;;4996839;28;20030;-84
2022/01/29 10:13:24;;;;;;;31.90;21.50;;;77.50;2227.20;;;;;;4996926;28;20033;-85
2022/01/29 10:15:51;;;;;;;23.33;13.77;;;77.60;2227.20;;;;;;4996523;28;20109;-84
2022/01/29 10:18:21;;;;;;;25.38;15.35;;;77.70;2227.20;;;;;;4996799;28;20498;-83
2022/01/29 10:20:47;;;;;;;24.13;16.20;;;77.70;2227.20;;;;;;4996518;28;20478;-82
2022/01/29 10:23:13;;;;;;;29.90;20.73;;;102.40;2227.20;;;;;;4998940;28;20117;-83
2022/01/29 10:25:43;;;;;;;20.00;13.88;;;102.40;2227.20;;;;;;5000467;28;20458;-83
2022/01/29 10:28:17;;;;;;;22.42;15.68;;;102.50;2227.20;;;;;;5000397;28;20076;-80
2022/01/29 10:30:49;;;;;;;20.65;13.88;;;102.50;2227.20;;;;;;5000022;28;20026;-79
2022/01/29 10:33:24;;;;;;;42.63;26.38;;;102.50;2227.20;;;;;;5000341;28;20474;-83
2022/01/29 10:36:00;;;;;;;29.45;21.70;;;102.50;2227.20;;;;;;4999944;28;20034;-81
2022/01/29 10:38:27;;;;;;;31.85;22.85;;;102.50;2227.20;;;;;;5000152;28;20026;-82
2022/01/29 10:41:21;;;;;;;36.33;25.70;;;102.50;2227.20;;;;;;5000196;28;20076;-81
2022/01/29 10:44:08;;;;;;;;;;;102.50;2227.20;;;;;;5000470;28;20036;-82
2022/01/29 10:46:34;;;;;;;30.83;17.45;;;102.50;2227.20;;;;;;4999906;28;19910;-80
2022/01/29 10:49:00;;;;;;;22.33;15.25;;;102.50;2227.20;;;;;;5000143;28;20026;-80
2022/01/29 10:51:26;;;;;;;25.52;18.08;;;102.40;2227.20;;;;;;4999958;28;20029;-84
2022/01/29 10:53:53;;;;;;;18.10;12.90;;;102.50;2227.20;;;;;;5000201;28;20032;-84
2022/01/29 10:56:22;;;;;;;18.60;14.35;;;102.50;2227.20;;;;;;4999982;28;20470;-82
2022/01/29 10:58:50;;;;;;;25.88;17.08;;;102.50;2227.20;;;;;;5017219;28;20100;-84
2022/01/29 11:01:18;;;;;;;26.85;21.38;;;102.50;2227.20;;;;;;5000056;28;20025;-82
2022/01/29 11:03:44;;;;;;;16.92;11.30;;;102.50;2227.20;;;;;;5016913;28;20034;-85
2022/01/29 11:06:18;;;;;;;26.23;19.08;;;102.50;2227.20;;;;;;4999758;28;20022;-82
2022/01/29 11:08:45;;;;;;;33.92;22.42;;;102.50;2227.20;;;;;;5017522;28;20021;-79
2022/01/29 11:11:13;;;;;;;17.13;11.65;;;102.50;2227.20;;;;;;4999467;28;20025;-81
2022/01/29 11:13:40;;;;;;;24.05;14.98;;;102.60;2227.20;;;;;;4999655;28;20033;-80
2022/01/29 11:16:06;;;;;;;41.97;25.33;;;102.60;2227.20;;;;;;5017243;28;20074;-80
2022/01/29 11:18:33;;;;;;;31.20;19.17;;;102.60;2227.20;;;;;;4999241;28;20026;-79
2022/01/29 11:21:01;;;;;;;28.48;18.52;;;102.70;2227.20;;;;;;4999491;28;20026;-79
2022/01/29 11:23:29;;;;;;;33.25;19.05;;;102.60;2227.20;;;;;;4999441;28;20120;-81
2022/01/29 11:25:56;;;;;;;38.55;22.30;;;102.70;2227.20;;;;;;4999250;28;20057;-76
2022/01/29 11:28:26;;;;;;;39.63;23.70;;;102.70;2227.20;;;;;;4999311;28;20026;-79
2022/01/29 11:31:11;;;;;;;39.30;22.98;;;102.80;2227.20;;;;;;4999352;28;20068;-76
2022/01/29 11:33:58;;;;;;;53.63;32.03;;;102.80;2227.20;;;;;;4999168;28;20095;-81
2022/01/29 11:36:47;;;;;;;36.50;22.17;;;102.80;2227.20;;;;;;4999197;28;20030;-79
2022/01/29 11:39:28;;;;;;;70.18;43.25;;;102.80;2227.20;;;;;;5016597;28;20061;-77
2022/01/29 11:42:13;;;;;;;70.68;44.55;;;102.90;2227.20;;;;;;4999013;28;20030;-78
2022/01/29 11:44:40;;;;;;;45.40;29.33;;;102.90;2227.20;;;;;;4999223;28;20133;-77
2022/01/29 11:47:27;;;;;;;35.28;21.70;;;103.00;2227.20;;;;;;5016380;28;20133;-79
2022/01/29 11:50:27;;;;;;;27.55;18.02;;;103.00;2227.20;;;;;;4999031;28;20026;-78
2022/01/29 11:52:57;;;;;;;55.88;31.02;;;103.00;2227.20;;;;;;5016203;28;20139;-77
2022/01/29 11:55:39;;;;;;;40.92;24.58;;;103.00;2227.20;;;;;;4998944;28;20524;-76
2022/01/29 11:58:21;;;;;;;34.38;21.00;;;103.10;2227.20;;;;;;5015805;28;20630;-77
2022/01/29 12:00:51;;;;;;;36.67;21.20;;;103.10;2227.20;;;;;;4998921;28;20437;-80
2022/01/29 12:03:41;;;;;;;33.70;20.13;;;103.10;2227.20;;;;;;4998340;28;20521;-77
2022/01/29 12:06:21;;;;;;;30.08;22.23;;;103.10;2227.20;;;;;;4998860;28;20026;-79
2022/01/29 12:09:07;;;;;;;29.15;19.50;;;103.10;2227.20;;;;;;4998968;28;20026;-83
2022/01/29 12:11:39;;;;;;;50.08;29.23;;;103.20;2227.20;;;;;;4997626;28;20073;-83
2022/01/29 12:14:13;;;;;;;56.08;36.22;;;103.20;2227.20;;;;;;4997543;28;20034;-79
2022/01/29 12:16:50;;;;;;;33.92;21.33;;;103.20;2227.20;;;;;;5014904;28;20045;-78
2022/01/29 12:19:45;;;;;;;80.35;50.08;;;103.30;2227.20;;;;;;4997706;28;20026;-79
2022/01/29 12:22:17;;;;;;;54.92;33.03;;;103.20;2227.20;;;;;;4998417;28;20473;-77
2022/01/29 12:24:48;;;;;;;41.53;26.08;;;103.20;2227.20;;;;;;4997340;28;20033;-80